Time;durP1;ratioP1;P1;durP2;ratioP2;P2;SDS_P1;SDS_P2;PMS_P1;PMS_P2;Temp;Humidity;BMP_temperature;BMP_pressure;BME280_temperature;BME280_humidity;BME280_pressure;Samples;Min_cycle;Max_cycle;Signal;HPM_P1;HPM_P2
2023/12/17 00:01:23;;;;;;;12.35;7.95;;;2.40;86.70;;;;;;4965427;28;20046;-64
2023/12/17 00:03:48;;;;;;;12.95;8.07;;;2.40;86.80;;;;;;4963586;28;20035;-64
2023/12/17 00:06:14;;;;;;;10.65;7.10;;;2.40;86.80;;;;;;4964037;28;20134;-63
2023/12/17 00:08:40;;;;;;;11.70;7.85;;;2.40;86.90;;;;;;4962454;28;20037;-64
2023/12/17 00:11:06;;;;;;;12.05;7.85;;;2.30;87.00;;;;;;4944727;28;20035;-64
2023/12/17 00:13:33;;;;;;;16.98;7.50;;;2.30;87.20;;;;;;4962673;28;20042;-64
2023/12/17 00:15:59;;;;;;;10.15;6.65;;;2.30;87.50;;;;;;4962006;28;20051;-63
2023/12/17 00:18:24;;;;;;;11.90;6.90;;;2.30;87.60;;;;;;4965079;28;20135;-64
2023/12/17 00:20:50;;;;;;;10.70;7.47;;;2.30;88.60;;;;;;4960567;28;20062;-62
2023/12/17 00:23:15;;;;;;;11.48;7.18;;;2.30;87.90;;;;;;4960881;28;20039;-62
2023/12/17 00:25:41;;;;;;;11.40;7.70;;;2.30;87.90;;;;;;4964000;28;20247;-63
2023/12/17 00:28:07;;;;;;;12.40;7.60;;;2.30;87.80;;;;;;4959279;28;20036;-63
2023/12/17 00:30:32;;;;;;;11.32;7.25;;;2.30;87.70;;;;;;4962003;28;20344;-64
2023/12/17 00:32:58;;;;;;;10.68;7.25;;;2.30;87.70;;;;;;4961438;28;20113;-64
2023/12/17 00:35:23;;;;;;;13.25;7.90;;;2.30;87.70;;;;;;4961108;28;20090;-64
2023/12/17 00:37:49;;;;;;;12.00;7.47;;;2.40;87.70;;;;;;4959757;28;20043;-63
2023/12/17 00:40:14;;;;;;;14.57;7.80;;;2.40;87.60;;;;;;4961089;28;20062;-64
2023/12/17 00:42:40;;;;;;;13.05;8.15;;;2.40;87.50;;;;;;4962058;28;20039;-63
2023/12/17 00:45:06;;;;;;;11.70;7.50;;;2.40;87.30;;;;;;4960060;28;20062;-64
2023/12/17 00:47:32;;;;;;;17.83;8.50;;;2.40;87.30;;;;;;4961439;28;20097;-62
2023/12/17 00:49:57;;;;;;;17.70;9.68;;;2.50;87.20;;;;;;4958437;28;20082;-64
2023/12/17 00:52:23;;;;;;;16.75;9.65;;;2.40;87.20;;;;;;4963734;28;20038;-63
2023/12/17 00:54:49;;;;;;;15.20;8.77;;;2.50;87.20;;;;;;4961328;28;20097;-63
2023/12/17 00:57:15;;;;;;;16.60;8.23;;;2.50;87.20;;;;;;4963923;28;20391;-63
2023/12/17 00:59:41;;;;;;;13.02;8.60;;;2.50;86.80;;;;;;4962369;28;20118;-63
2023/12/17 01:02:06;;;;;;;13.32;8.52;;;2.40;86.60;;;;;;4960223;28;20130;-63
2023/12/17 01:04:32;;;;;;;12.57;8.73;;;2.50;86.70;;;;;;4966990;28;20137;-63
2023/12/17 01:06:58;;;;;;;12.48;8.13;;;2.40;86.70;;;;;;4967953;28;20047;-64
2023/12/17 01:09:23;;;;;;;10.85;7.85;;;2.40;86.90;;;;;;4965308;28;20456;-63
2023/12/17 01:11:49;;;;;;;13.35;8.00;;;2.30;86.90;;;;;;4963766;28;20408;-63
2023/12/17 01:14:14;;;;;;;14.43;8.35;;;2.30;87.00;;;;;;4962401;28;20032;-64
2023/12/17 01:16:40;;;;;;;11.77;7.40;;;2.30;87.10;;;;;;4963101;28;20031;-63
2023/12/17 01:19:06;;;;;;;12.73;7.53;;;2.30;87.20;;;;;;4963429;28;20411;-64
2023/12/17 01:21:31;;;;;;;11.18;7.95;;;2.30;87.30;;;;;;4966253;28;20085;-64
2023/12/17 01:23:58;;;;;;;11.73;8.07;;;2.30;87.20;;;;;;4964314;28;20138;-64
2023/12/17 01:26:26;;;;;;;11.38;7.70;;;2.30;87.00;;;;;;4963255;28;20082;-64
2023/12/17 01:28:58;;;;;;;12.50;8.07;;;2.40;87.00;;;;;;4960720;28;20038;-63
2023/12/17 01:31:23;;;;;;;13.77;8.80;;;2.40;87.70;;;;;;4964805;28;20051;-63
2023/12/17 01:33:49;;;;;;;14.95;9.27;;;2.40;86.90;;;;;;4965541;28;20466;-63
2023/12/17 01:36:14;;;;;;;13.70;8.88;;;2.40;86.80;;;;;;4962891;28;20427;-62
2023/12/17 01:38:40;;;;;;;17.40;9.40;;;2.40;86.80;;;;;;4962375;28;21208;-63
2023/12/17 01:41:09;;;;;;;14.63;9.35;;;2.40;86.60;;;;;;4962273;28;20525;-63
2023/12/17 01:43:34;;;;;;;14.82;9.40;;;2.40;86.50;;;;;;4965257;28;20046;-64
2023/12/17 01:46:00;;;;;;;14.30;9.02;;;2.40;86.30;;;;;;4967573;28;20164;-63
2023/12/17 01:48:26;;;;;;;12.23;8.35;;;2.40;86.30;;;;;;4963472;28;20042;-62
2023/12/17 01:50:54;;;;;;;12.40;8.73;;;2.30;86.30;;;;;;4954280;28;20130;-63
2023/12/17 01:53:20;;;;;;;12.32;8.75;;;2.30;86.40;;;;;;4968348;28;20030;-63
2023/12/17 01:55:48;;;;;;;13.90;9.13;;;2.30;86.40;;;;;;4970291;28;20047;-63
2023/12/17 01:58:15;;;;;;;15.57;9.07;;;2.30;86.40;;;;;;4977951;28;20081;-63
2023/12/17 02:00:41;;;;;;;14.65;9.73;;;2.20;86.20;;;;;;4977011;28;20418;-63
2023/12/17 02:03:06;;;;;;;16.10;10.27;;;2.20;86.20;;;;;;4976417;28;20030;-63
2023/12/17 02:05:33;;;;;;;18.42;10.18;;;2.20;86.40;;;;;;4969290;28;20031;-63
2023/12/17 02:07:59;;;;;;;13.80;9.07;;;2.20;86.30;;;;;;4974068;28;20043;-63
2023/12/17 02:10:26;;;;;;;15.73;9.68;;;2.20;86.10;;;;;;4969583;28;20122;-63
2023/12/17 02:12:51;;;;;;;15.57;9.38;;;2.10;86.10;;;;;;4971725;28;20433;-63
2023/12/17 02:15:17;;;;;;;14.98;9.07;;;2.10;87.10;;;;;;4974736;28;20034;-62
2023/12/17 02:17:42;;;;;;;16.33;9.20;;;2.10;86.30;;;;;;4967141;28;20470;-63
2023/12/17 02:20:08;;;;;;;15.07;9.77;;;2.00;86.50;;;;;;4967010;28;20478;-63
2023/12/17 02:22:36;;;;;;;13.25;8.95;;;2.00;86.60;;;;;;4969501;28;20037;-63
2023/12/17 02:25:01;;;;;;;13.70;8.75;;;1.90;86.80;;;;;;4977025;28;20034;-63
2023/12/17 02:27:27;;;;;;;17.00;9.55;;;1.90;87.00;;;;;;4966723;28;20043;-62
2023/12/17 02:29:54;;;;;;;13.13;9.13;;;1.90;87.20;;;;;;4969718;28;20444;-63
2023/12/17 02:32:22;;;;;;;15.80;9.60;;;1.90;87.30;;;;;;4967797;28;20567;-63
2023/12/17 02:34:48;;;;;;;13.82;9.23;;;1.90;87.20;;;;;;4972329;28;20053;-64
2023/12/17 02:37:14;;;;;;;13.98;8.30;;;1.90;87.00;;;;;;4976285;28;20390;-63
2023/12/17 02:39:40;;;;;;;12.70;8.27;;;1.90;87.00;;;;;;4973441;28;20407;-63
2023/12/17 02:42:06;;;;;;;13.35;8.85;;;1.90;87.00;;;;;;4972911;28;20022;-62
2023/12/17 02:44:31;;;;;;;13.55;8.52;;;2.00;87.20;;;;;;4971908;28;20471;-63
2023/12/17 02:46:58;;;;;;;12.38;8.45;;;2.00;87.20;;;;;;4971741;28;20050;-63
2023/12/17 02:49:24;;;;;;;15.25;9.13;;;2.00;87.10;;;;;;4970916;28;20121;-63
2023/12/17 02:51:50;;;;;;;14.20;8.73;;;2.00;87.00;;;;;;4974343;28;20546;-63
2023/12/17 02:54:17;;;;;;;14.55;8.80;;;2.00;87.10;;;;;;4976279;28;20460;-63
2023/12/17 02:56:43;;;;;;;16.55;10.93;;;2.00;87.10;;;;;;4969710;28;20062;-63
2023/12/17 02:59:10;;;;;;;14.25;9.80;;;2.00;87.00;;;;;;4973315;28;20062;-63
2023/12/17 03:01:36;;;;;;;12.77;8.82;;;2.00;86.80;;;;;;4971030;28;20031;-61
2023/12/17 03:04:04;;;;;;;13.23;8.88;;;2.00;86.80;;;;;;4973881;28;20085;-63
2023/12/17 03:06:30;;;;;;;14.82;8.98;;;2.00;86.60;;;;;;4969012;28;20082;-62
2023/12/17 03:08:55;;;;;;;14.10;9.27;;;2.00;86.30;;;;;;4971784;28;20530;-63
2023/12/17 03:11:21;;;;;;;14.70;8.98;;;2.00;86.20;;;;;;4967501;28;20078;-64
2023/12/17 03:13:47;;;;;;;14.55;8.88;;;2.00;86.30;;;;;;4968188;28;20054;-64
2023/12/17 03:16:12;;;;;;;14.25;8.68;;;1.90;86.50;;;;;;4972961;28;20061;-64
2023/12/17 03:18:38;;;;;;;14.52;8.45;;;1.90;86.40;;;;;;4974205;28;20042;-64
2023/12/17 03:21:05;;;;;;;13.63;8.55;;;1.90;86.50;;;;;;4974719;28;20118;-63
2023/12/17 03:23:31;;;;;;;15.30;9.18;;;1.90;86.60;;;;;;4966731;28;20248;-63
2023/12/17 03:25:57;;;;;;;13.60;8.98;;;1.80;86.50;;;;;;4970232;28;20446;-64
2023/12/17 03:28:22;;;;;;;12.70;8.68;;;1.90;86.50;;;;;;4968597;28;20546;-64
2023/12/17 03:30:48;;;;;;;13.45;9.30;;;1.80;86.30;;;;;;4974876;28;20039;-63
2023/12/17 03:33:14;;;;;;;13.73;8.95;;;1.80;86.30;;;;;;4975204;28;20030;-63
2023/12/17 03:35:39;;;;;;;12.93;8.60;;;1.80;86.30;;;;;;4968426;28;20031;-64
2023/12/17 03:38:05;;;;;;;12.32;8.02;;;1.70;86.30;;;;;;4969863;28;20058;-62
2023/12/17 03:40:31;;;;;;;15.10;8.77;;;1.70;86.30;;;;;;4969339;28;20034;-63
2023/12/17 03:42:57;;;;;;;13.25;7.97;;;1.70;86.30;;;;;;4970149;28;20506;-63
2023/12/17 03:45:22;;;;;;;12.07;7.80;;;1.60;86.50;;;;;;4974867;28;20038;-63
2023/12/17 03:47:48;;;;;;;12.80;8.07;;;1.60;86.70;;;;;;4971771;28;20517;-63
2023/12/17 03:50:18;;;;;;;13.80;8.40;;;1.60;87.00;;;;;;4969957;28;20027;-63
2023/12/17 03:52:46;;;;;;;13.82;8.48;;;1.60;87.20;;;;;;4970498;28;20062;-63
2023/12/17 03:55:12;;;;;;;14.55;8.63;;;1.60;87.30;;;;;;4964876;28;20035;-63
2023/12/17 03:57:37;;;;;;;12.65;8.38;;;1.60;87.50;;;;;;4968566;28;20085;-63
2023/12/17 04:00:03;;;;;;;15.13;9.32;;;1.60;87.50;;;;;;4972454;28;20064;-63
2023/12/17 04:02:29;;;;;;;13.63;8.75;;;1.70;87.30;;;;;;4967737;28;20034;-63
2023/12/17 04:04:55;;;;;;;13.02;8.27;;;1.70;87.10;;;;;;4965894;28;20065;-63
2023/12/17 04:07:20;;;;;;;15.13;9.02;;;1.70;87.00;;;;;;4970997;28;20696;-63
2023/12/17 04:09:47;;;;;;;15.70;8.80;;;1.70;87.00;;;;;;4964302;28;20031;-64
2023/12/17 04:12:12;;;;;;;16.13;8.77;;;1.70;86.90;;;;;;4969698;28;20022;-63
2023/12/17 04:14:39;;;;;;;13.45;8.43;;;1.70;86.80;;;;;;4963650;28;20039;-62
2023/12/17 04:17:04;;;;;;;14.65;8.90;;;1.70;86.80;;;;;;4975173;28;20169;-63
2023/12/17 04:19:30;;;;;;;13.77;8.75;;;1.70;86.90;;;;;;4969666;28;20117;-63
2023/12/17 04:21:55;;;;;;;16.60;9.70;;;1.60;86.90;;;;;;4968046;28;20027;-64
2023/12/17 04:24:21;;;;;;;15.88;9.55;;;1.70;86.90;;;;;;4970223;28;20183;-63
2023/12/17 04:26:46;;;;;;;15.77;9.40;;;1.70;86.60;;;;;;4965491;28;20039;-63
2023/12/17 04:29:12;;;;;;;16.98;10.45;;;1.60;86.60;;;;;;4973866;28;20552;-63
2023/12/17 04:31:38;;;;;;;16.95;10.10;;;1.60;86.60;;;;;;4967563;28;20035;-63
2023/12/17 04:34:03;;;;;;;17.98;10.70;;;1.60;86.60;;;;;;4966434;28;20069;-63
2023/12/17 04:36:29;;;;;;;21.30;10.40;;;1.60;86.60;;;;;;4963698;28;20035;-64
2023/12/17 04:38:54;;;;;;;16.20;10.20;;;1.50;86.50;;;;;;4970698;28;20054;-63
2023/12/17 04:41:20;;;;;;;16.15;10.23;;;1.50;86.50;;;;;;4975945;28;20414;-63
2023/12/17 04:43:45;;;;;;;14.77;9.25;;;1.50;86.50;;;;;;4971993;28;20244;-63
2023/12/17 04:46:11;;;;;;;16.52;9.57;;;1.50;86.60;;;;;;4976585;28;20046;-63
2023/12/17 04:48:37;;;;;;;13.75;9.30;;;1.40;86.80;;;;;;4972434;28;20035;-63
2023/12/17 04:51:02;;;;;;;16.13;9.57;;;1.50;87.00;;;;;;4973866;28;20038;-63
2023/12/17 04:53:28;;;;;;;18.55;10.13;;;1.40;87.00;;;;;;4971317;28;20030;-63
2023/12/17 04:55:53;;;;;;;17.65;11.07;;;1.40;86.80;;;;;;4971303;28;20038;-63
2023/12/17 04:58:19;;;;;;;15.93;10.00;;;1.40;86.70;;;;;;4972829;28;20042;-63
2023/12/17 05:00:45;;;;;;;14.93;9.73;;;1.40;86.70;;;;;;4971617;28;20454;-61
2023/12/17 05:03:10;;;;;;;16.40;9.52;;;1.40;86.80;;;;;;4978864;28;20114;-63
2023/12/17 05:05:36;;;;;;;13.95;9.27;;;1.40;87.00;;;;;;4970450;28;20337;-63
2023/12/17 05:08:02;;;;;;;13.75;9.05;;;1.40;87.10;;;;;;4970734;28;20114;-63
2023/12/17 05:10:27;;;;;;;13.43;8.98;;;1.30;87.10;;;;;;4968034;28;20042;-63
2023/12/17 05:12:56;;;;;;;15.30;9.52;;;1.30;87.20;;;;;;4972879;28;20110;-62
2023/12/17 05:15:22;;;;;;;15.60;10.07;;;1.30;87.20;;;;;;4974158;28;20030;-63
2023/12/17 05:17:48;;;;;;;15.52;9.80;;;1.30;87.20;;;;;;4972638;28;20038;-63
2023/12/17 05:20:13;;;;;;;16.77;9.95;;;1.40;87.20;;;;;;4973557;28;20039;-63
2023/12/17 05:22:39;;;;;;;15.38;9.65;;;1.30;87.20;;;;;;4967706;28;20402;-62
2023/12/17 05:25:05;;;;;;;15.82;9.80;;;1.30;87.10;;;;;;4973198;28;20037;-63
2023/12/17 05:27:30;;;;;;;16.08;9.85;;;1.30;87.00;;;;;;4972322;28;20050;-63
2023/12/17 05:29:56;;;;;;;14.38;8.57;;;1.30;87.20;;;;;;4976048;28;20045;-63
2023/12/17 05:32:22;;;;;;;15.10;9.48;;;1.30;87.20;;;;;;4971026;28;20035;-63
2023/12/17 05:34:47;;;;;;;15.73;9.70;;;1.30;87.30;;;;;;4969021;28;20031;-63
2023/12/17 05:37:13;;;;;;;18.75;10.05;;;1.30;87.20;;;;;;4970151;28;20026;-63
2023/12/17 05:39:38;;;;;;;14.45;9.48;;;1.30;87.10;;;;;;4968736;28;20078;-63
2023/12/17 05:42:04;;;;;;;16.67;9.82;;;1.30;87.00;;;;;;4974371;28;20036;-62
2023/12/17 05:44:30;;;;;;;17.58;10.52;;;1.30;87.00;;;;;;4974672;28;20036;-63
2023/12/17 05:46:55;;;;;;;13.35;9.07;;;1.30;87.00;;;;;;4973252;28;20039;-63
2023/12/17 05:49:21;;;;;;;14.55;8.88;;;1.30;86.90;;;;;;4968583;28;20506;-63
2023/12/17 05:51:47;;;;;;;13.68;9.25;;;1.30;86.90;;;;;;4967636;28;20042;-63
2023/12/17 05:54:13;;;;;;;15.95;9.40;;;1.30;86.90;;;;;;4973845;28;20035;-63
2023/12/17 05:56:42;;;;;;;13.70;8.65;;;1.30;86.80;;;;;;4966180;28;20115;-63
2023/12/17 05:59:08;;;;;;;14.48;8.98;;;1.30;86.90;;;;;;4960523;28;20026;-63
2023/12/17 06:01:34;;;;;;;14.82;9.45;;;1.30;87.00;;;;;;4964435;28;20309;-63
2023/12/17 06:04:00;;;;;;;16.17;10.18;;;1.20;87.10;;;;;;4963844;28;20041;-62
2023/12/17 06:06:26;;;;;;;13.90;9.07;;;1.30;87.10;;;;;;4975138;28;20486;-63
2023/12/17 06:08:52;;;;;;;15.48;8.85;;;1.30;87.10;;;;;;4965193;28;20111;-63
2023/12/17 06:11:18;;;;;;;14.15;9.25;;;1.30;87.00;;;;;;4976711;28;20034;-63
2023/12/17 06:13:45;;;;;;;14.02;9.02;;;1.30;87.10;;;;;;4971948;28;20114;-63
2023/12/17 06:16:11;;;;;;;12.50;8.75;;;1.30;87.10;;;;;;4971923;28;20058;-63
2023/12/17 06:18:38;;;;;;;16.70;9.35;;;1.30;87.00;;;;;;4969163;28;20037;-63
2023/12/17 06:21:04;;;;;;;17.30;10.70;;;1.30;87.10;;;;;;4975847;28;20038;-63
2023/12/17 06:23:31;;;;;;;15.95;10.07;;;1.30;87.00;;;;;;4976332;28;20096;-64
2023/12/17 06:25:56;;;;;;;15.75;10.15;;;1.30;86.60;;;;;;4978157;28;20542;-63
2023/12/17 06:28:24;;;;;;;18.83;10.10;;;1.30;86.40;;;;;;4977382;28;20065;-63
2023/12/17 06:30:50;;;;;;;14.82;9.93;;;1.30;86.30;;;;;;4965246;28;20109;-63
2023/12/17 06:33:15;;;;;;;17.05;9.52;;;1.20;86.30;;;;;;4970227;28;20542;-62
2023/12/17 06:35:41;;;;;;;15.38;9.68;;;1.20;86.40;;;;;;4971478;28;20058;-63
2023/12/17 06:38:06;;;;;;;13.57;9.07;;;1.20;86.50;;;;;;4975988;28;20039;-63
2023/12/17 06:40:32;;;;;;;15.10;9.23;;;1.20;86.60;;;;;;4968849;28;20406;-62
2023/12/17 06:42:58;;;;;;;14.43;8.80;;;1.20;86.60;;;;;;4973461;28;20368;-63
2023/12/17 06:45:23;;;;;;;15.10;9.25;;;1.20;86.80;;;;;;4970223;28;20586;-63
2023/12/17 06:47:49;;;;;;;15.73;10.18;;;1.20;86.80;;;;;;4968833;28;20499;-63
2023/12/17 06:50:15;;;;;;;13.55;8.93;;;1.20;86.80;;;;;;4966756;28;20034;-63
2023/12/17 06:52:41;;;;;;;14.15;9.48;;;1.20;86.70;;;;;;4971188;28;20507;-63
2023/12/17 06:55:07;;;;;;;14.73;9.70;;;1.20;86.60;;;;;;4971030;28;20101;-61
2023/12/17 06:57:33;;;;;;;13.52;8.95;;;1.20;86.80;;;;;;4975006;28;20502;-62
2023/12/17 06:59:58;;;;;;;13.05;9.05;;;1.30;86.90;;;;;;4973986;28;20053;-62
2023/12/17 07:02:24;;;;;;;13.25;9.27;;;1.20;86.80;;;;;;4973435;28;20421;-61
2023/12/17 07:04:49;;;;;;;12.90;8.90;;;1.30;86.80;;;;;;4968450;28;20121;-63
2023/12/17 07:07:15;;;;;;;15.43;9.25;;;1.30;86.80;;;;;;4962855;28;20038;-62
2023/12/17 07:09:42;;;;;;;16.33;9.43;;;1.30;86.80;;;;;;4949563;28;20141;-63
2023/12/17 07:12:09;;;;;;;12.20;8.48;;;1.30;86.80;;;;;;4961448;28;20111;-62
2023/12/17 07:14:34;;;;;;;16.75;9.50;;;1.30;86.80;;;;;;4962107;28;20122;-63
2023/12/17 07:17:00;;;;;;;13.10;8.85;;;1.30;87.00;;;;;;4962754;28;20549;-61
2023/12/17 07:19:25;;;;;;;14.15;9.23;;;1.40;87.20;;;;;;4963821;28;20039;-63
2023/12/17 07:21:51;;;;;;;15.32;9.35;;;1.40;87.10;;;;;;4960733;28;20482;-61
2023/12/17 07:24:17;;;;;;;14.30;9.63;;;1.40;87.00;;;;;;4963461;28;20041;-63
2023/12/17 07:26:42;;;;;;;14.63;8.82;;;1.40;87.00;;;;;;4964566;28;20058;-63
2023/12/17 07:29:08;;;;;;;14.75;9.88;;;1.40;87.00;;;;;;4966428;28;20359;-60
2023/12/17 07:31:34;;;;;;;16.00;10.05;;;1.40;87.00;;;;;;4962356;28;20046;-63
2023/12/17 07:33:59;;;;;;;15.80;9.73;;;1.40;87.20;;;;;;4963625;28;20051;-63
2023/12/17 07:36:25;;;;;;;16.73;10.93;;;1.40;87.30;;;;;;4962999;28;20502;-62
2023/12/17 07:38:50;;;;;;;80.55;37.67;;;1.40;87.30;;;;;;4961409;28;20038;-61
2023/12/17 07:41:16;;;;;;;81.97;40.05;;;1.50;87.50;;;;;;4965848;28;20031;-61
2023/12/17 07:43:42;;;;;;;45.58;25.45;;;1.50;87.40;;;;;;4957405;28;20047;-62
2023/12/17 07:46:08;;;;;;;34.60;19.15;;;1.50;87.30;;;;;;4953795;28;20518;-62
2023/12/17 07:48:34;;;;;;;27.35;16.13;;;1.50;87.30;;;;;;4959840;28;20047;-63
2023/12/17 07:51:01;;;;;;;24.85;14.40;;;1.50;87.30;;;;;;4960910;28;20061;-63
2023/12/17 07:53:30;;;;;;;25.52;14.93;;;1.50;87.30;;;;;;4962595;28;20339;-60
2023/12/17 07:55:57;;;;;;;27.58;15.55;;;1.60;87.30;;;;;;4964558;28;20069;-63
2023/12/17 07:58:24;;;;;;;27.02;15.23;;;1.60;87.30;;;;;;4966107;28;20038;-62
2023/12/17 08:00:50;;;;;;;26.92;14.52;;;1.60;87.30;;;;;;4943933;28;20031;-63
2023/12/17 08:03:16;;;;;;;20.42;12.02;;;1.60;87.40;;;;;;4960838;28;20089;-63
2023/12/17 08:05:41;;;;;;;19.88;11.80;;;1.70;87.50;;;;;;4964212;28;20027;-63
2023/12/17 08:08:07;;;;;;;17.90;11.73;;;1.70;87.50;;;;;;4968860;28;20027;-63
2023/12/17 08:10:33;;;;;;;17.90;11.80;;;1.70;87.50;;;;;;4963115;28;20066;-63
2023/12/17 08:12:58;;;;;;;19.80;12.57;;;1.70;87.50;;;;;;4965594;28;20038;-61
2023/12/17 08:15:24;;;;;;;21.27;12.38;;;1.70;87.60;;;;;;4965649;28;20046;-63
2023/12/17 08:17:49;;;;;;;18.02;11.48;;;1.70;87.50;;;;;;4960760;28;20471;-63
2023/12/17 08:20:15;;;;;;;18.05;11.68;;;1.70;87.70;;;;;;4955427;28;20079;-63
2023/12/17 08:22:41;;;;;;;18.10;11.50;;;1.80;87.80;;;;;;4954479;28;20043;-62
2023/12/17 08:25:06;;;;;;;17.23;11.02;;;1.80;87.90;;;;;;4953528;28;20034;-63
2023/12/17 08:27:32;;;;;;;20.98;12.45;;;1.80;87.90;;;;;;4961357;28;20110;-63
2023/12/17 08:29:58;;;;;;;18.75;11.52;;;1.80;88.00;;;;;;4953758;28;20049;-64
2023/12/17 08:32:31;;;;;;;20.30;12.30;;;1.80;88.00;;;;;;4954891;28;20055;-62
2023/12/17 08:34:56;;;;;;;19.10;11.82;;;1.90;88.20;;;;;;4958750;28;20058;-63
2023/12/17 08:37:24;;;;;;;20.38;13.50;;;1.90;88.30;;;;;;4952190;28;20063;-62
2023/12/17 08:39:49;;;;;;;17.90;11.57;;;1.90;88.40;;;;;;4967584;28;20057;-63
2023/12/17 08:42:15;;;;;;;16.73;11.02;;;2.00;88.40;;;;;;4966432;28;20384;-63
2023/12/17 08:44:40;;;;;;;16.25;10.82;;;2.00;88.60;;;;;;4960308;28;20054;-63
2023/12/17 08:47:06;;;;;;;14.68;10.35;;;2.00;88.70;;;;;;4961882;28;20130;-64
2023/12/17 08:49:32;;;;;;;16.88;10.65;;;2.00;88.80;;;;;;4958711;28;20443;-63
2023/12/17 08:51:57;;;;;;;14.65;10.32;;;2.10;88.90;;;;;;4965953;28;20027;-63
2023/12/17 08:54:23;;;;;;;16.90;11.32;;;2.10;89.00;;;;;;4958277;28;20034;-63
2023/12/17 08:56:48;;;;;;;19.95;12.45;;;2.10;89.50;;;;;;4966860;28;20054;-64
2023/12/17 08:59:14;;;;;;;19.48;13.05;;;2.20;89.10;;;;;;4965359;28;20058;-63
2023/12/17 09:01:40;;;;;;;21.17;14.60;;;2.20;89.30;;;;;;4961932;28;20027;-63
2023/12/17 09:04:06;;;;;;;28.05;18.15;;;2.20;89.20;;;;;;4960535;28;20073;-63
2023/12/17 09:06:46;;;;;;;25.63;16.90;;;2.30;89.30;;;;;;4961662;28;20059;-63
2023/12/17 09:09:13;;;;;;;20.17;14.20;;;2.30;89.50;;;;;;4965804;28;20026;-63
2023/12/17 09:11:39;;;;;;;25.85;15.15;;;2.40;89.40;;;;;;4961348;28;20034;-63
2023/12/17 09:14:07;;;;;;;19.05;13.23;;;2.40;89.60;;;;;;4964172;28;20050;-63
2023/12/17 09:16:33;;;;;;;17.17;11.35;;;2.40;89.80;;;;;;4961604;28;20094;-63
2023/12/17 09:18:59;;;;;;;16.52;11.35;;;2.50;89.80;;;;;;4968774;28;20254;-63
2023/12/17 09:21:25;;;;;;;16.08;10.82;;;2.60;90.00;;;;;;4958723;28;20626;-63
2023/12/17 09:23:51;;;;;;;16.40;11.07;;;2.60;90.00;;;;;;4958036;28;20050;-63
2023/12/17 09:26:18;;;;;;;26.83;14.43;;;2.60;89.80;;;;;;4971614;28;20413;-63
2023/12/17 09:28:44;;;;;;;16.77;11.32;;;2.70;90.00;;;;;;4963067;28;20026;-64
2023/12/17 09:31:10;;;;;;;21.38;11.45;;;2.70;90.00;;;;;;4963880;28;20031;-61
2023/12/17 09:33:36;;;;;;;22.45;13.80;;;2.80;90.00;;;;;;4966297;28;20047;-63
2023/12/17 09:36:07;;;;;;;21.02;12.80;;;2.80;90.00;;;;;;4962892;28;20170;-63
2023/12/17 09:38:33;;;;;;;18.13;11.95;;;2.90;90.10;;;;;;4960415;28;20101;-65
2023/12/17 09:40:58;;;;;;;17.13;11.60;;;3.00;90.10;;;;;;4970295;28;20586;-64
2023/12/17 09:43:25;;;;;;;19.33;11.85;;;3.00;90.10;;;;;;4962612;28;20036;-62
2023/12/17 09:45:51;;;;;;;22.95;13.48;;;3.10;90.10;;;;;;4965258;28;20039;-63
2023/12/17 09:48:17;;;;;;;19.27;12.32;;;3.20;90.10;;;;;;4967004;28;20493;-64
2023/12/17 09:50:43;;;;;;;22.15;13.02;;;3.20;90.10;;;;;;4960355;28;20031;-63
2023/12/17 09:53:12;;;;;;;20.08;13.02;;;3.30;90.10;;;;;;4946392;28;20035;-64
2023/12/17 09:55:38;;;;;;;18.88;12.43;;;3.30;90.10;;;;;;4958881;28;20046;-64
2023/12/17 09:58:07;;;;;;;17.98;11.95;;;3.40;90.10;;;;;;4961647;28;20042;-64
2023/12/17 10:00:33;;;;;;;17.75;11.85;;;3.50;90.10;;;;;;4966110;28;20039;-64
2023/12/17 10:03:05;;;;;;;17.42;12.05;;;3.50;90.10;;;;;;4974397;28;20101;-63
2023/12/17 10:05:31;;;;;;;17.88;12.43;;;3.60;90.10;;;;;;4968834;28;20498;-63
2023/12/17 10:08:01;;;;;;;16.58;11.38;;;3.60;90.10;;;;;;4976207;28;20030;-63
2023/12/17 10:10:27;;;;;;;20.90;13.25;;;3.70;90.10;;;;;;4966557;28;20118;-64
2023/12/17 10:12:53;;;;;;;22.60;13.60;;;3.70;90.10;;;;;;4968702;28;20114;-63
2023/12/17 10:15:19;;;;;;;18.67;11.55;;;3.80;90.10;;;;;;4975835;28;20042;-63
2023/12/17 10:17:45;;;;;;;19.95;12.68;;;3.90;90.10;;;;;;4973895;28;20035;-63
2023/12/17 10:20:16;;;;;;;17.58;12.23;;;4.00;90.10;;;;;;4974964;28;20088;-64
2023/12/17 10:22:59;;;;;;;18.42;11.88;;;4.00;90.10;;;;;;4965804;28;20042;-64
2023/12/17 10:25:25;;;;;;;16.95;11.70;;;4.10;90.10;;;;;;4969670;28;20040;-64
2023/12/17 10:27:56;;;;;;;20.50;12.43;;;4.20;90.00;;;;;;4969082;28;20271;-63
2023/12/17 10:30:30;;;;;;;17.73;11.88;;;4.20;90.00;;;;;;4973028;28;20113;-63
2023/12/17 10:33:01;;;;;;;16.23;11.32;;;4.30;90.00;;;;;;4953893;28;20440;-64
2023/12/17 10:35:27;;;;;;;16.58;11.70;;;4.40;90.00;;;;;;4973443;28;20061;-63
2023/12/17 10:38:05;;;;;;;18.30;11.90;;;4.40;89.90;;;;;;4972602;28;20031;-64
2023/12/17 10:40:33;;;;;;;16.35;11.15;;;4.50;89.80;;;;;;4970352;28;20051;-63
2023/12/17 10:42:59;;;;;;;17.05;11.32;;;4.60;89.80;;;;;;4972281;28;20510;-63
2023/12/17 10:45:25;;;;;;;14.38;10.40;;;4.60;89.60;;;;;;4966828;28;20578;-64
2023/12/17 10:47:57;;;;;;;16.25;11.20;;;4.70;89.60;;;;;;4966641;28;20039;-63
2023/12/17 10:50:24;;;;;;;15.10;10.82;;;4.70;90.10;;;;;;4975132;28;20086;-64
2023/12/17 10:52:51;;;;;;;14.70;10.80;;;4.80;89.70;;;;;;4969910;28;20043;-63
2023/12/17 10:55:17;;;;;;;17.38;11.73;;;4.90;89.60;;;;;;4971394;28;20046;-64
2023/12/17 10:58:06;;;;;;;16.55;11.35;;;4.90;89.50;;;;;;4970398;28;20062;-64
2023/12/17 11:00:34;;;;;;;15.52;10.77;;;5.00;89.40;;;;;;4970274;28;20406;-64
2023/12/17 11:03:04;;;;;;;15.30;11.32;;;5.00;89.40;;;;;;4968477;28;20537;-64
2023/12/17 11:05:29;;;;;;;15.75;11.25;;;5.10;89.30;;;;;;4973827;28;20031;-64
2023/12/17 11:07:55;;;;;;;14.52;10.48;;;5.20;89.30;;;;;;4974374;28;20522;-64
2023/12/17 11:10:21;;;;;;;14.15;10.88;;;5.20;89.40;;;;;;4972712;28;20494;-64
2023/12/17 11:12:47;;;;;;;15.85;10.70;;;5.30;89.40;;;;;;4973257;28;20132;-64
2023/12/17 11:15:13;;;;;;;15.13;10.88;;;5.40;89.30;;;;;;4975468;28;20030;-64
2023/12/17 11:17:40;;;;;;;14.88;10.57;;;5.50;89.10;;;;;;4974727;28;20093;-63
2023/12/17 11:20:06;;;;;;;14.23;9.98;;;5.50;88.90;;;;;;4971132;28;20038;-63
2023/12/17 11:22:36;;;;;;;11.90;8.85;;;5.60;89.00;;;;;;4971694;28;20042;-64
2023/12/17 11:25:04;;;;;;;10.80;7.88;;;5.70;89.00;;;;;;4975240;28;20073;-64
2023/12/17 11:27:31;;;;;;;9.85;7.28;;;5.70;88.90;;;;;;4975693;28;20096;-63
2023/12/17 11:29:57;;;;;;;8.07;6.35;;;5.80;88.60;;;;;;4972961;28;20033;-62
2023/12/17 11:32:27;;;;;;;8.32;5.90;;;5.90;88.30;;;;;;4975219;28;20120;-63
2023/12/17 11:34:53;;;;;;;6.78;5.40;;;5.90;88.00;;;;;;4971659;28;20118;-63
2023/12/17 11:37:21;;;;;;;6.80;5.15;;;6.00;87.90;;;;;;4968734;28;20042;-63
2023/12/17 11:39:51;;;;;;;8.90;6.10;;;6.10;87.50;;;;;;4972747;28;20521;-63
2023/12/17 11:42:18;;;;;;;7.78;5.85;;;6.20;87.40;;;;;;4973201;28;20030;-62
2023/12/17 11:44:45;;;;;;;6.80;5.65;;;6.30;87.30;;;;;;4974963;28;20399;-64
2023/12/17 11:47:15;;;;;;;6.18;5.07;;;6.30;87.10;;;;;;4974715;28;20121;-63
2023/12/17 11:49:42;;;;;;;6.15;5.05;;;6.50;87.00;;;;;;4967539;28;20054;-63
2023/12/17 11:52:15;;;;;;;5.80;4.85;;;6.50;86.80;;;;;;4969183;28;20098;-63
2023/12/17 11:54:44;;;;;;;5.70;4.80;;;6.60;86.50;;;;;;4958101;28;20026;-63
2023/12/17 11:57:23;;;;;;;5.97;4.90;;;6.70;86.40;;;;;;4976119;28;20050;-63
2023/12/17 11:59:52;;;;;;;4.82;4.13;;;6.80;85.60;;;;;;4970797;28;20516;-64
2023/12/17 12:02:19;;;;;;;5.45;4.18;;;6.90;85.70;;;;;;4966369;28;20099;-63
2023/12/17 12:04:45;;;;;;;4.60;3.85;;;7.00;85.40;;;;;;4967861;28;20083;-63
2023/12/17 12:07:17;;;;;;;5.00;4.03;;;7.10;85.00;;;;;;4967584;28;20506;-64
2023/12/17 12:09:43;;;;;;;3.92;3.53;;;7.10;84.50;;;;;;4965250;28;20118;-63
2023/12/17 12:12:16;;;;;;;4.50;3.97;;;7.20;84.20;;;;;;4977885;28;20084;-63
2023/12/17 12:14:44;;;;;;;4.28;3.88;;;7.30;83.10;;;;;;4967373;28;20027;-63
2023/12/17 12:17:39;;;;;;;4.53;3.75;;;7.40;83.40;;;;;;4975134;28;20403;-63
2023/12/17 12:20:12;;;;;;;4.55;3.88;;;7.50;82.40;;;;;;4972673;28;20043;-63
2023/12/17 12:22:45;;;;;;;4.30;3.53;;;7.50;82.40;;;;;;4966478;28;20027;-63
2023/12/17 12:25:12;;;;;;;4.60;3.88;;;7.50;82.70;;;;;;4969196;28;20411;-63
2023/12/17 12:27:38;;;;;;;4.05;3.65;;;7.60;82.40;;;;;;4968925;28;20043;-64
2023/12/17 12:30:05;;;;;;;4.57;3.78;;;7.60;82.20;;;;;;4972964;28;20027;-63
2023/12/17 12:32:32;;;;;;;17.75;8.90;;;7.70;82.10;;;;;;4970071;28;20046;-63
2023/12/17 12:34:58;;;;;;;8.15;5.38;;;7.70;82.70;;;;;;4971035;28;20039;-63
2023/12/17 12:37:37;;;;;;;6.32;4.70;;;7.70;81.70;;;;;;4970948;28;20038;-63
2023/12/17 12:40:05;;;;;;;5.00;3.88;;;7.70;80.80;;;;;;4969609;28;20038;-63